createdAt,value
2017-06-24T00:00:11.514Z,77.56
2017-06-24T00:01:11.542Z,77.65
2017-06-24T00:02:11.568Z,77.75
2017-06-24T00:03:11.593Z,77.84
2017-06-24T00:05:11.641Z,78.13
2017-06-24T00:06:11.671Z,78.71
2017-06-24T00:07:11.695Z,78.42
2017-06-24T00:08:11.718Z,79
2017-06-24T00:09:11.748Z,79.1
2017-06-24T00:10:11.772Z,79.77
2017-06-24T00:11:11.493Z,79.96
2017-06-24T00:12:11.824Z,80.02
2017-06-24T00:13:11.849Z,80.4
2017-06-24T00:14:11.876Z,81.37
2017-06-24T00:15:11.901Z,81.07
2017-06-24T00:16:11.927Z,81.27
2017-06-24T00:17:11.952Z,81.75
2017-06-24T00:18:11.672Z,81.75
2017-06-24T00:19:12.009Z,81.37
2017-06-24T00:20:12.030Z,81.27
2017-06-24T00:21:12.056Z,81.75
2017-06-24T00:22:12.082Z,82.04
2017-06-24T00:23:26.722Z,82.61
2017-06-24T00:24:12.132Z,82.61
2017-06-24T00:25:12.157Z,83
2017-06-24T00:26:12.183Z,82.81
2017-06-24T00:27:12.210Z,83.53
2017-06-24T00:28:12.232Z,83.25
2017-06-24T00:29:12.261Z,83.53
2017-06-24T00:30:12.285Z,84.01
2017-06-24T00:31:12.310Z,84.01
2017-06-24T00:33:12.410Z,84.21
2017-06-24T00:34:12.384Z,84.01
2017-06-24T00:35:12.412Z,83.73
2017-06-24T00:36:12.438Z,83.73
2017-06-24T00:37:12.463Z,84.01
2017-06-24T00:38:12.492Z,84.11
2017-06-24T00:39:27.133Z,84.11
2017-06-24T00:40:12.541Z,83.83
2017-06-24T00:41:12.602Z,84.4
2017-06-24T00:42:12.592Z,84.59
2017-06-24T00:43:12.616Z,84.59
2017-06-24T00:44:12.641Z,84.21
2017-06-24T00:45:12.672Z,84.11
2017-06-24T00:46:12.697Z,84.11
2017-06-24T00:47:12.719Z,84.01
2017-06-24T00:48:12.745Z,84.3
2017-06-24T00:49:12.772Z,83.63
2017-06-24T00:50:12.831Z,84.01
2017-06-24T00:51:12.819Z,84.21
2017-06-24T00:52:12.542Z,83.63
2017-06-24T00:53:12.872Z,83.34
2017-06-24T00:54:12.898Z,83.63
2017-06-24T00:55:27.539Z,83.53
2017-06-24T00:56:12.948Z,83.34
2017-06-24T00:57:12.973Z,82.96
2017-06-24T00:58:13.000Z,83.83
2017-06-24T00:59:13.026Z,83.53
2017-06-24T01:00:13.052Z,83.25
2017-06-24T01:01:13.078Z,83.15
2017-06-24T01:02:13.100Z,82.96
2017-06-24T01:03:13.125Z,83.15
2017-06-24T01:04:13.157Z,83.06
2017-06-24T01:05:13.177Z,82.96
2017-06-24T01:06:13.202Z,83.34
2017-06-24T01:07:13.229Z,82.96
2017-06-24T01:08:13.257Z,83.34
2017-06-24T01:09:13.282Z,82.96
2017-06-24T01:10:13.303Z,83.06
2017-06-24T01:11:27.947Z,83.15
2017-06-24T01:12:13.358Z,83.15
2017-06-24T01:13:13.383Z,82.67
2017-06-24T01:14:13.407Z,83.53
2017-06-24T01:15:13.435Z,83.92
2017-06-24T01:16:13.460Z,83.06
2017-06-24T01:17:13.484Z,83.73
2017-06-24T01:18:13.508Z,83.34
2017-06-24T01:19:13.538Z,83.34
2017-06-24T01:20:13.560Z,83.53
2017-06-24T01:21:13.585Z,83.73
2017-06-24T01:22:13.610Z,83.34
2017-06-24T01:23:13.638Z,83.63
2017-06-24T01:24:13.662Z,83.73
2017-06-24T01:25:13.688Z,83.34
2017-06-24T01:26:28.331Z,83.15
2017-06-24T01:27:13.738Z,83.34
2017-06-24T01:28:13.763Z,83.15
2017-06-24T01:29:13.788Z,83.15
2017-06-24T01:30:13.813Z,82.48
2017-06-24T01:31:13.839Z,83.15
2017-06-24T01:32:13.866Z,83.06
2017-06-24T01:33:13.587Z,83.34
2017-06-24T01:34:13.917Z,83.34
2017-06-24T01:35:13.945Z,83.73
2017-06-24T01:36:13.964Z,83.92
2017-06-24T01:37:14.000Z,83.92
2017-06-24T01:38:14.018Z,83.92
2017-06-24T01:39:14.045Z,83.73
2017-06-24T01:40:14.067Z,83.34
2017-06-24T01:41:14.094Z,83.53
2017-06-24T01:42:14.119Z,83.73
2017-06-24T01:43:14.148Z,83.53
2017-06-24T01:44:14.173Z,83.34
2017-06-24T01:45:14.198Z,83.92
2017-06-24T01:46:13.919Z,83.92
2017-06-24T01:47:14.246Z,84.11
2017-06-24T01:48:14.270Z,84.78
2017-06-24T01:49:14.298Z,84.11
2017-06-24T01:50:14.322Z,84.01
2017-06-24T01:51:14.351Z,84.21
2017-06-24T01:52:14.373Z,83.83
2017-06-24T01:54:14.422Z,83.53
2017-06-24T01:55:14.449Z,83.83
2017-06-24T01:56:14.479Z,84.3
2017-06-24T01:57:14.499Z,84.4
2017-06-24T01:58:29.144Z,84.4
2017-06-24T01:59:14.549Z,84.21
2017-06-24T02:00:14.578Z,83.92
2017-06-24T02:01:14.603Z,84.3
2017-06-24T02:02:14.632Z,84.4
2017-06-24T02:03:14.654Z,84.01
2017-06-24T02:04:14.678Z,84.59
2017-06-24T02:05:14.706Z,84.3
2017-06-24T02:06:14.732Z,84.59
2017-06-24T02:07:14.756Z,84.88
2017-06-24T02:08:14.779Z,84.69
2017-06-24T02:09:14.804Z,84.59
2017-06-24T02:12:14.883Z,84.78
2017-06-24T02:13:14.905Z,84.59
2017-06-24T02:14:29.550Z,84.4
2017-06-24T02:15:14.961Z,84.59
2017-06-24T02:16:14.679Z,84.59
2017-06-24T02:17:15.010Z,84.59
2017-06-24T02:18:15.035Z,84.4
2017-06-24T02:19:15.060Z,84.21
2017-06-24T02:20:15.085Z,84.4
2017-06-24T02:21:14.809Z,84.69
2017-06-24T02:22:15.136Z,84.78
2017-06-24T02:23:15.161Z,84.3
2017-06-24T02:25:15.212Z,83.73
2017-06-24T02:28:15.288Z,83.73
2017-06-24T02:29:15.317Z,83.92
2017-06-24T02:30:29.955Z,83.73
2017-06-24T02:31:15.367Z,83.92
2017-06-24T02:32:15.388Z,84.21
2017-06-24T02:33:15.415Z,83.63
2017-06-24T02:34:15.136Z,84.4
2017-06-24T02:35:15.162Z,83.73
2017-06-24T02:36:15.190Z,83.25
2017-06-24T02:37:15.515Z,83.34
2017-06-24T02:38:15.544Z,83.06
2017-06-24T02:39:15.567Z,82.96
2017-06-24T02:40:15.596Z,83.15
2017-06-24T02:41:15.628Z,83.15
2017-06-24T02:43:15.669Z,82.09
2017-06-24T02:44:15.696Z,81.61
2017-06-24T02:45:15.416Z,81.52
2017-06-24T02:46:30.361Z,81.71
2017-06-24T02:47:15.773Z,81.23
2017-06-24T02:48:15.796Z,81.13
2017-06-24T02:49:15.821Z,80.65
2017-06-24T02:50:15.857Z,80.6
2017-06-24T02:51:15.870Z,80.36
2017-06-24T02:52:15.593Z,80.3
2017-06-24T02:53:15.619Z,80.46
2017-06-24T02:54:15.646Z,80.11
2017-06-24T02:55:15.973Z,80.11
2017-06-24T02:56:15.997Z,79.6
2017-06-24T02:57:16.025Z,79.88
2017-06-24T02:58:16.054Z,79.25
2017-06-24T03:00:16.100Z,78.77
2017-06-24T03:01:30.744Z,78.86
2017-06-24T03:02:15.850Z,78.53
2017-06-24T03:03:16.174Z,78.53
2017-06-24T03:04:16.202Z,78.44
2017-06-24T03:05:16.229Z,77.96
2017-06-24T03:06:16.253Z,78.34
2017-06-24T03:07:16.278Z,77.96
2017-06-24T03:08:16.302Z,78.25
2017-06-24T03:09:16.328Z,78.25
2017-06-24T03:10:16.356Z,78.34
2017-06-24T03:11:16.378Z,77.67
2017-06-24T03:13:16.429Z,78.44
2017-06-24T03:14:16.148Z,78.06
2017-06-24T03:15:16.483Z,78.34
2017-06-24T03:16:16.506Z,77.58
2017-06-24T03:17:16.531Z,76.71
2017-06-24T03:18:16.555Z,76.9
2017-06-24T03:19:16.578Z,76.61
2017-06-24T03:20:16.608Z,77.09
2017-06-24T03:21:16.632Z,76.9
2017-06-24T03:22:16.662Z,76.81
2017-06-24T03:23:16.683Z,76.23
2017-06-24T03:24:16.707Z,76.61
2017-06-24T03:25:16.731Z,76.9
2017-06-24T03:26:16.758Z,76.9
2017-06-24T03:27:16.781Z,76.71
2017-06-24T03:29:16.835Z,77.67
2017-06-24T03:30:16.857Z,76.81
2017-06-24T03:31:17.135Z,77.19
2017-06-24T03:32:16.909Z,77.09
2017-06-24T03:33:31.549Z,77.48
2017-06-24T03:34:16.962Z,77.58
2017-06-24T03:35:16.984Z,77.67
2017-06-24T03:36:17.010Z,78.06
2017-06-24T03:37:17.033Z,78.25
2017-06-24T03:38:17.060Z,77.67
2017-06-24T03:39:17.085Z,78.15
2017-06-24T03:40:17.115Z,77.58
2017-06-24T03:41:17.140Z,78.25
2017-06-24T03:42:17.160Z,78.34
2017-06-24T03:43:17.186Z,78.15
2017-06-24T03:44:17.213Z,77.76
2017-06-24T03:46:17.265Z,78.4
2017-06-24T03:47:17.287Z,78.15
2017-06-24T03:48:17.319Z,77.67
2017-06-24T03:49:31.954Z,77.58
2017-06-24T03:50:17.362Z,77.58
2017-06-24T03:51:17.083Z,77.76
2017-06-24T03:52:17.411Z,78.15
2017-06-24T03:53:17.440Z,78.34
2017-06-24T03:54:17.160Z,78.21
2017-06-24T03:55:17.487Z,78.25
2017-06-24T03:56:17.512Z,78.34
2017-06-24T03:57:17.537Z,78.25
2017-06-24T03:58:17.563Z,78.53
2017-06-24T03:59:17.587Z,78.63
2017-06-24T04:00:17.614Z,78.34
2017-06-24T04:02:17.663Z,78.25
2017-06-24T04:03:17.691Z,78.53
2017-06-24T04:04:17.717Z,77.86
2017-06-24T04:05:32.356Z,78.25
2017-06-24T04:06:17.761Z,78.59
2017-06-24T04:07:17.788Z,79.17
2017-06-24T04:08:17.819Z,78.98
2017-06-24T04:09:17.838Z,78.73
2017-06-24T04:10:17.865Z,78.59
2017-06-24T04:11:17.894Z,78.3
2017-06-24T04:12:17.916Z,78.98
2017-06-24T04:13:17.940Z,78.78
2017-06-24T04:14:17.963Z,78.98
2017-06-24T04:15:17.990Z,79.07
2017-06-24T04:16:18.018Z,79.3
2017-06-24T04:17:18.039Z,79.02
2017-06-24T04:18:18.066Z,78.92
2017-06-24T04:20:18.115Z,78.92
2017-06-24T04:21:32.758Z,78.63
2017-06-24T04:22:18.166Z,78.63
2017-06-24T04:23:18.192Z,79.02
2017-06-24T04:24:18.216Z,79.02
2017-06-24T04:25:18.242Z,78.83
2017-06-24T04:26:18.267Z,79.98
2017-06-24T04:27:18.291Z,79.88
2017-06-24T04:28:18.319Z,78.92
2017-06-24T04:29:18.341Z,79.17
2017-06-24T04:30:18.366Z,79.55
2017-06-24T04:31:18.395Z,80.22
2017-06-24T04:32:18.419Z,80.17
2017-06-24T04:33:18.446Z,80.55
2017-06-24T04:34:18.164Z,81.23
2017-06-24T04:35:18.191Z,80.46
2017-06-24T04:36:33.137Z,80.46
2017-06-24T04:37:18.544Z,81.13
2017-06-24T04:38:18.568Z,80.27
2017-06-24T04:39:18.594Z,80.17
2017-06-24T04:40:18.619Z,80.55
2017-06-24T04:41:18.646Z,81.32
2017-06-24T04:42:18.672Z,81.13
2017-06-24T04:43:18.694Z,80.65
2017-06-24T04:44:18.724Z,80.17
2017-06-24T04:45:18.746Z,80.32
2017-06-24T04:46:18.773Z,81.38
2017-06-24T04:47:19.095Z,81.19
2017-06-24T04:50:18.872Z,81.13
2017-06-24T04:51:18.895Z,80.55
2017-06-24T04:52:18.923Z,81.13
2017-06-24T04:53:18.945Z,80.55
2017-06-24T04:54:18.974Z,80.55
2017-06-24T04:55:19.000Z,80.94
2017-06-24T04:56:19.024Z,81.13
2017-06-24T04:57:19.046Z,80.55
2017-06-24T04:58:19.070Z,81.52
2017-06-24T04:59:19.099Z,81.81
2017-06-24T05:00:18.819Z,80.94
2017-06-24T05:01:19.146Z,81.71
2017-06-24T05:03:19.198Z,81.52
2017-06-24T05:04:19.221Z,81.32
2017-06-24T05:05:19.250Z,81.52
2017-06-24T05:06:19.275Z,80.75
2017-06-24T05:08:33.943Z,81.61
2017-06-24T05:09:19.351Z,81.52
2017-06-24T05:10:19.374Z,81.61
2017-06-24T05:11:19.397Z,81.32
2017-06-24T05:12:19.427Z,81.42
2017-06-24T05:13:19.450Z,81.61
2017-06-24T05:14:19.476Z,81.04
2017-06-24T05:15:19.500Z,80.84
2017-06-24T05:16:19.524Z,81.13
2017-06-24T05:17:19.557Z,81.61
2017-06-24T05:18:19.576Z,81.04
2017-06-24T05:20:19.625Z,81.04
2017-06-24T05:21:19.654Z,81.23
2017-06-24T05:22:19.680Z,81.61
2017-06-24T05:23:19.704Z,81.52
2017-06-24T05:24:34.345Z,81.52
2017-06-24T05:25:19.754Z,81.61
2017-06-24T05:26:19.778Z,82.09
2017-06-24T05:27:19.805Z,81.42
2017-06-24T05:28:19.832Z,81.32
2017-06-24T05:29:19.858Z,81.23
2017-06-24T05:30:19.880Z,80.98
2017-06-24T05:31:19.905Z,81.52
2017-06-24T05:32:19.932Z,81.17
2017-06-24T05:33:19.956Z,80.6
2017-06-24T05:35:20.008Z,81.27
2017-06-24T05:36:20.036Z,80.4
2017-06-24T05:38:20.084Z,80.5
2017-06-24T05:39:19.804Z,80.6
2017-06-24T05:40:34.751Z,80.98
2017-06-24T05:41:20.160Z,80.88
2017-06-24T05:42:20.182Z,80.88
2017-06-24T05:43:20.211Z,81.17
2017-06-24T05:44:20.235Z,80.79
2017-06-24T05:45:20.260Z,80.79
2017-06-24T05:46:20.287Z,81.17
2017-06-24T05:47:20.310Z,80.98
2017-06-24T05:48:20.341Z,81.17
2017-06-24T05:49:20.360Z,81.07
2017-06-24T05:50:20.389Z,81.07
2017-06-24T05:51:20.415Z,81.37
2017-06-24T05:52:20.440Z,81.17
2017-06-24T05:53:20.464Z,81.56
2017-06-24T05:54:20.488Z,81.07
2017-06-24T05:55:20.511Z,81.37
2017-06-24T05:56:35.157Z,80.6
2017-06-24T05:57:20.566Z,81.07
2017-06-24T05:58:20.590Z,81.07
2017-06-24T05:59:20.614Z,80.88
2017-06-24T06:00:20.641Z,80.11
2017-06-24T06:01:20.665Z,80.5
2017-06-24T06:02:20.697Z,80.5
2017-06-24T06:03:20.717Z,80.88
2017-06-24T06:04:20.742Z,79.82
2017-06-24T06:05:20.771Z,80.3
2017-06-24T06:06:20.794Z,79.19
2017-06-24T06:07:20.820Z,78.9
2017-06-24T06:08:20.842Z,78.52
2017-06-24T06:09:20.871Z,78.61
2017-06-24T06:10:20.898Z,78.61
2017-06-24T06:11:35.538Z,78.27
2017-06-24T06:12:20.947Z,78.13
2017-06-24T06:13:20.969Z,77.5
2017-06-24T06:14:20.999Z,77.98
2017-06-24T06:15:21.024Z,78.27
2017-06-24T06:16:21.050Z,77.31
2017-06-24T06:17:21.073Z,76.73
2017-06-24T06:18:21.098Z,77.88
2017-06-24T06:19:21.125Z,77.01
2017-06-24T06:20:21.151Z,76.92
2017-06-24T06:21:21.176Z,77.11
2017-06-24T06:22:21.202Z,76.53
2017-06-24T06:23:21.225Z,76.34
2017-06-24T06:24:21.250Z,76.15
2017-06-24T06:25:21.280Z,76.53
2017-06-24T06:26:21.306Z,76.63
2017-06-24T06:27:21.331Z,76.73
2017-06-24T06:28:21.358Z,75.76
2017-06-24T06:29:21.381Z,76.06
2017-06-24T06:30:21.406Z,76.44
2017-06-24T06:31:21.434Z,76.73
2017-06-24T06:32:21.459Z,76.92
2017-06-24T06:33:21.485Z,76.44
2017-06-24T06:34:21.508Z,75.96
2017-06-24T06:35:21.537Z,76.82
2017-06-24T06:36:21.562Z,77.31
2017-06-24T06:37:21.587Z,77.4
2017-06-24T06:38:21.612Z,77.11
2017-06-24T06:39:21.636Z,77.15
2017-06-24T06:40:21.663Z,78.02
2017-06-24T06:41:21.692Z,77.92
2017-06-24T06:42:21.712Z,77.59
2017-06-24T06:43:36.359Z,77.21
2017-06-24T06:44:21.767Z,77.25
2017-06-24T06:45:21.796Z,77.59
2017-06-24T06:46:21.817Z,77.21
2017-06-24T06:47:21.845Z,76.92
2017-06-24T06:48:21.873Z,77.78
2017-06-24T06:49:21.897Z,77.21
2017-06-24T06:50:21.925Z,77.69
2017-06-24T06:51:21.948Z,77.69
2017-06-24T06:52:21.973Z,78.17
2017-06-24T06:53:21.996Z,77.59
2017-06-24T06:54:22.024Z,77.69
2017-06-24T06:55:22.051Z,78.27
2017-06-24T06:56:22.078Z,77.59
2017-06-24T06:57:22.101Z,77.59
2017-06-24T06:58:22.127Z,78.31
2017-06-24T06:59:36.771Z,77.83
2017-06-24T07:00:22.329Z,78.31
2017-06-24T07:01:22.210Z,77.53
2017-06-24T07:02:22.227Z,77.34
2017-06-24T07:03:22.257Z,77.63
2017-06-24T07:04:22.281Z,77.63
2017-06-24T07:05:22.307Z,77.83
2017-06-24T07:06:22.333Z,77.15
2017-06-24T07:07:22.361Z,77.06
2017-06-24T07:08:22.386Z,77.53
2017-06-24T07:09:22.411Z,77.73
2017-06-24T07:10:22.436Z,78.02
2017-06-24T07:11:22.463Z,77.92
2017-06-24T07:12:22.490Z,78.31
2017-06-24T07:13:22.515Z,78.21
2017-06-24T07:14:22.538Z,78.4
2017-06-24T07:15:37.183Z,77.63
2017-06-24T07:16:22.595Z,78.4
2017-06-24T07:17:22.616Z,78.11
2017-06-24T07:18:22.642Z,78.02
2017-06-24T07:19:22.668Z,78.88
2017-06-24T07:20:22.693Z,79.08
2017-06-24T07:21:22.723Z,78.69
2017-06-24T07:22:22.749Z,77.86
2017-06-24T07:23:22.772Z,77.09
2017-06-24T07:24:22.799Z,76.23
2017-06-24T07:25:22.824Z,76.32
2017-06-24T07:26:22.949Z,76.51
2017-06-24T07:27:22.876Z,76.32
2017-06-24T07:28:22.904Z,76.8
2017-06-24T07:29:22.929Z,76.51
2017-06-24T07:30:22.955Z,77
2017-06-24T07:31:37.597Z,76.9
2017-06-24T07:32:23.006Z,77.19
2017-06-24T07:33:23.033Z,77
2017-06-24T07:34:23.059Z,76.9
2017-06-24T07:35:23.084Z,76.8
2017-06-24T07:36:23.110Z,76.61
2017-06-24T07:37:23.183Z,75.84
2017-06-24T07:38:23.165Z,75.55
2017-06-24T07:39:23.190Z,75.16
2017-06-24T07:40:23.214Z,75.26
2017-06-24T07:41:23.241Z,75.65
2017-06-24T07:42:23.265Z,76.13
2017-06-24T07:43:23.293Z,75.26
2017-06-24T07:44:23.318Z,75.74
2017-06-24T07:45:23.342Z,76.23
2017-06-24T07:46:37.989Z,76.8
2017-06-24T07:47:23.396Z,76.86
2017-06-24T07:48:23.422Z,76.23
2017-06-24T07:49:23.449Z,77.06
2017-06-24T07:50:23.477Z,76.76
2017-06-24T07:51:23.503Z,76.96
2017-06-24T07:52:23.527Z,77.34
2017-06-24T07:53:23.553Z,77.83
2017-06-24T07:54:23.278Z,77.73
2017-06-24T07:55:23.605Z,77.28
2017-06-24T07:56:23.631Z,77
2017-06-24T07:57:23.658Z,76.23
2017-06-24T07:58:23.685Z,76.8
2017-06-24T08:00:23.836Z,75.49
2017-06-24T08:01:23.762Z,75.2
2017-06-24T08:02:23.787Z,75.1
2017-06-24T08:03:23.814Z,75.4
2017-06-24T08:04:23.842Z,75.4
2017-06-24T08:05:23.866Z,75.68
2017-06-24T08:06:23.891Z,76.36
2017-06-24T08:07:23.918Z,75.78
2017-06-24T08:08:23.943Z,75.78
2017-06-24T08:09:23.975Z,75.84
2017-06-24T08:10:23.997Z,75.97
2017-06-24T08:11:24.023Z,75.65
2017-06-24T08:13:24.077Z,76.13
2017-06-24T08:14:24.100Z,76.13
2017-06-24T08:15:24.131Z,76.23
2017-06-24T08:16:24.152Z,76.51
2017-06-24T08:17:24.180Z,76.32
2017-06-24T08:18:38.824Z,76.13
2017-06-24T08:19:24.233Z,75.65
2017-06-24T08:20:23.957Z,76.23
2017-06-24T08:21:24.282Z,76.71
2017-06-24T08:22:24.311Z,76.9
2017-06-24T08:23:24.344Z,76.42
2017-06-24T08:24:24.366Z,77
2017-06-24T08:25:24.392Z,77.38
2017-06-24T08:26:24.414Z,76.93
2017-06-24T08:27:24.454Z,76.84
2017-06-24T08:28:24.465Z,77.03
2017-06-24T08:29:24.494Z,76.17
2017-06-24T08:30:24.522Z,75.43
2017-06-24T08:31:24.574Z,76.45
2017-06-24T08:33:24.598Z,75.49
2017-06-24T08:34:39.241Z,74.91
2017-06-24T08:35:24.651Z,74.72
2017-06-24T08:36:24.678Z,75.78
2017-06-24T08:37:24.706Z,75.74
2017-06-24T08:38:24.731Z,75.55
2017-06-24T08:39:24.756Z,75.26
2017-06-24T08:40:24.783Z,75.3
2017-06-24T08:41:24.807Z,75.4
2017-06-24T08:42:24.837Z,75.3
2017-06-24T08:43:24.860Z,75.59
2017-06-24T08:44:24.885Z,74.91
2017-06-24T08:45:24.610Z,74.97
2017-06-24T08:46:24.989Z,75.45
2017-06-24T08:48:24.991Z,75.45
2017-06-24T08:49:25.017Z,75.26
2017-06-24T08:50:39.660Z,74.68
2017-06-24T08:51:25.120Z,75.36
2017-06-24T08:52:25.097Z,74.82
2017-06-24T08:53:25.123Z,75.3
2017-06-24T08:54:25.148Z,75.68
2017-06-24T08:55:25.176Z,75.3
2017-06-24T08:56:25.204Z,75.68
2017-06-24T08:57:25.226Z,76.3
2017-06-24T08:58:25.252Z,75.92
2017-06-24T08:59:25.279Z,75.53
2017-06-24T09:00:25.357Z,75.24
2017-06-24T09:01:25.333Z,75.62
2017-06-24T09:02:25.357Z,74.85
2017-06-24T09:03:25.386Z,74.12
2017-06-24T09:04:25.109Z,74.21
2017-06-24T09:05:25.435Z,74.51
2017-06-24T09:06:40.082Z,73.63
2017-06-24T09:07:25.490Z,73.35
2017-06-24T09:08:25.517Z,74.41
2017-06-24T09:09:25.545Z,74.89
2017-06-24T09:10:25.571Z,74.12
2017-06-24T09:11:25.598Z,74.31
2017-06-24T09:12:25.625Z,75.09
2017-06-24T09:13:25.648Z,75.09
2017-06-24T09:14:25.675Z,74.79
2017-06-24T09:15:25.703Z,75.27
2017-06-24T09:17:25.755Z,74.31
2017-06-24T09:18:25.780Z,74.83
2017-06-24T09:19:25.809Z,72.52
2017-06-24T09:21:40.482Z,72.61
2017-06-24T09:22:25.891Z,71
2017-06-24T09:23:25.918Z,71.48
2017-06-24T09:24:25.943Z,69.98
2017-06-24T09:25:25.968Z,69.2
2017-06-24T09:26:25.694Z,69.49
2017-06-24T09:27:26.024Z,70.36
2017-06-24T09:28:26.052Z,69.14
2017-06-24T09:29:26.081Z,69.33
2017-06-24T09:30:26.106Z,69.78
2017-06-24T09:31:25.829Z,70.65
2017-06-24T09:32:26.162Z,69.3
2017-06-24T09:33:26.185Z,68.66
2017-06-24T09:34:26.213Z,69.14
2017-06-24T09:35:26.241Z,69.59
2017-06-24T09:36:26.268Z,69.68
2017-06-24T09:37:26.296Z,68.91
2017-06-24T09:38:26.323Z,69.1
2017-06-24T09:39:26.349Z,69.3
2017-06-24T09:40:26.073Z,69.01
2017-06-24T09:41:26.403Z,70.17
2017-06-24T09:42:26.430Z,70.26
2017-06-24T09:43:26.461Z,71.2
2017-06-24T09:44:26.485Z,69.84
2017-06-24T09:45:26.510Z,70.81
2017-06-24T09:46:26.564Z,71.36
2017-06-24T09:47:26.566Z,71.3
2017-06-24T09:49:26.624Z,71.78
2017-06-24T09:50:26.646Z,72.42
2017-06-24T09:52:26.700Z,70.42
2017-06-24T09:53:41.345Z,70.07
2017-06-24T09:54:26.754Z,69.49
2017-06-24T09:55:26.781Z,69.01
2017-06-24T09:56:26.807Z,69.01
2017-06-24T09:57:26.837Z,67.79
2017-06-24T09:58:26.863Z,67.69
2017-06-24T09:59:26.890Z,68.33
2017-06-24T10:00:26.916Z,68.62
2017-06-24T10:01:26.943Z,68.14
2017-06-24T10:02:26.970Z,68.24
2017-06-24T10:03:26.998Z,68.14
2017-06-24T10:04:27.027Z,68.43
2017-06-24T10:06:27.081Z,69.01
2017-06-24T10:07:27.107Z,69.01
2017-06-24T10:08:26.832Z,69.3
2017-06-24T10:09:41.778Z,69.4
2017-06-24T10:10:27.193Z,68.72
2017-06-24T10:11:27.215Z,68.43
2017-06-24T10:12:27.242Z,67.94
2017-06-24T10:13:27.270Z,68.14
2017-06-24T10:14:27.299Z,68.14
2017-06-24T10:15:27.328Z,68.62
2017-06-24T10:16:27.048Z,68.27
2017-06-24T10:17:27.379Z,66.91
2017-06-24T10:18:27.408Z,67.36
2017-06-24T10:19:27.430Z,66.88
2017-06-24T10:20:27.761Z,67.66
2017-06-24T10:21:27.490Z,67.85
2017-06-24T10:22:27.515Z,67.85
2017-06-24T10:23:27.546Z,68.24
2017-06-24T10:24:27.570Z,68.4
2017-06-24T10:25:42.214Z,68.52
2017-06-24T10:26:27.624Z,68.24
2017-06-24T10:27:27.652Z,67.94
2017-06-24T10:28:27.679Z,68.04
2017-06-24T10:29:27.705Z,68.91
2017-06-24T10:30:27.732Z,68.04
2017-06-24T10:32:27.786Z,68.52
2017-06-24T10:33:27.829Z,68.33
2017-06-24T10:35:27.869Z,68.33
2017-06-24T10:36:27.897Z,68.14
2017-06-24T10:38:27.950Z,68.91
2017-06-24T10:39:27.978Z,67.75
2017-06-24T10:40:28.007Z,68.49
2017-06-24T10:41:42.648Z,68.2
2017-06-24T10:42:28.060Z,69.4
2017-06-24T10:43:28.088Z,68.14
2017-06-24T10:44:28.115Z,69.01
2017-06-24T10:45:28.141Z,67.75
2017-06-24T10:46:28.169Z,67.85
2017-06-24T10:47:28.198Z,68.14
2017-06-24T10:48:28.223Z,68.72
2017-06-24T10:49:28.250Z,67.75
2017-06-24T10:50:28.276Z,68.4
2017-06-24T10:51:28.300Z,68.88
2017-06-24T10:52:28.333Z,68.62
2017-06-24T10:53:28.360Z,68.49
2017-06-24T10:55:28.415Z,68.82
2017-06-24T10:56:43.059Z,68.62
2017-06-24T10:57:28.468Z,68.14
2017-06-24T10:58:28.494Z,68.17
2017-06-24T10:59:28.524Z,67.98
2017-06-24T11:00:28.549Z,67.66
2017-06-24T11:01:28.578Z,68.33
2017-06-24T11:02:28.604Z,68.14
2017-06-24T11:03:28.679Z,68.43
2017-06-24T11:04:28.355Z,68.72
2017-06-24T11:05:28.685Z,68.14
2017-06-24T11:06:28.712Z,68.52
2017-06-24T11:07:28.740Z,68.14
2017-06-24T11:09:28.794Z,68.14
2017-06-24T11:10:28.819Z,67.94
2017-06-24T11:11:28.850Z,68.04
2017-06-24T11:12:28.878Z,68.52
2017-06-24T11:13:28.903Z,67.88
2017-06-24T11:14:28.932Z,67.69
2017-06-24T11:15:28.958Z,66.91
2017-06-24T11:16:28.984Z,66.53
2017-06-24T11:17:29.012Z,66.95
2017-06-24T11:18:29.038Z,66.75
2017-06-24T11:19:29.067Z,65.79
2017-06-24T11:20:29.095Z,67.24
2017-06-24T11:21:29.120Z,65.59
2017-06-24T11:22:29.151Z,65.59
2017-06-24T11:23:29.175Z,65.92
2017-06-24T11:24:29.203Z,65.24
2017-06-24T11:25:29.235Z,65.53
2017-06-24T11:26:29.260Z,64.98
2017-06-24T11:27:29.285Z,64.69
2017-06-24T11:28:43.932Z,64.11
2017-06-24T11:29:29.340Z,64.2
2017-06-24T11:30:29.375Z,63.04
2017-06-24T11:31:29.398Z,64.89
2017-06-24T11:32:29.121Z,64.98
2017-06-24T11:33:29.451Z,65.24
2017-06-24T11:34:29.481Z,65.24
2017-06-24T11:35:29.508Z,65.98
2017-06-24T11:36:29.231Z,65.98
2017-06-24T11:37:29.563Z,65.34
2017-06-24T11:38:29.590Z,65.24
2017-06-24T11:39:29.617Z,65.05
2017-06-24T11:40:29.646Z,64.66
2017-06-24T11:41:29.673Z,65.05
2017-06-24T11:42:29.700Z,66.6
2017-06-24T11:43:29.729Z,65.82
2017-06-24T11:44:44.375Z,65.63
2017-06-24T11:45:29.787Z,65.24
2017-06-24T11:46:29.812Z,65.3
2017-06-24T11:47:29.893Z,64.95
2017-06-24T11:48:29.866Z,66.27
2017-06-24T11:49:29.592Z,65.2
2017-06-24T11:50:29.922Z,65.98
2017-06-24T11:51:29.954Z,66.24
2017-06-24T11:52:29.982Z,67.3
2017-06-24T11:54:30.034Z,67.69
2017-06-24T11:55:30.062Z,67.59
2017-06-24T11:56:30.092Z,67.69
2017-06-24T11:58:30.145Z,69.46
2017-06-24T11:59:30.221Z,70.04
2017-06-24T12:00:44.816Z,69.36
2017-06-24T12:01:30.224Z,69.56
2017-06-24T12:02:30.250Z,69.46
2017-06-24T12:03:30.281Z,68.78
2017-06-24T12:04:30.309Z,69.65
2017-06-24T12:05:30.334Z,68.88
2017-06-24T12:06:30.415Z,68.62
2017-06-24T12:07:30.390Z,68.52
2017-06-24T12:08:30.417Z,68.08
2017-06-24T12:09:30.457Z,68.27
2017-06-24T12:10:30.470Z,67.14
2017-06-24T12:11:30.499Z,66.3
2017-06-24T12:13:30.553Z,65.08
2017-06-24T12:14:30.586Z,64.89
2017-06-24T12:15:30.608Z,63.95
2017-06-24T12:16:45.255Z,64.14
2017-06-24T12:17:30.661Z,62.98
2017-06-24T12:18:30.691Z,63.65
2017-06-24T12:19:30.718Z,64.34
2017-06-24T12:20:30.747Z,63.95
2017-06-24T12:21:30.779Z,64.04
2017-06-24T12:22:30.803Z,63.27
2017-06-24T12:23:30.833Z,62.49
2017-06-24T12:24:30.861Z,63.07
2017-06-24T12:25:30.890Z,63.04
2017-06-24T12:26:30.914Z,63.14
2017-06-24T12:27:30.943Z,64.01
2017-06-24T12:28:30.970Z,63.62
2017-06-24T12:29:31.000Z,63.4
2017-06-24T12:30:31.027Z,64.47
2017-06-24T12:31:45.675Z,63.4
2017-06-24T12:32:31.134Z,63.79
2017-06-24T12:33:31.114Z,63.89
2017-06-24T12:34:31.140Z,63.89
2017-06-24T12:35:31.169Z,63.43
2017-06-24T12:36:31.198Z,63.72
2017-06-24T12:37:31.226Z,62.95
2017-06-24T12:38:31.304Z,64.3
2017-06-24T12:39:31.281Z,64.01
2017-06-24T12:40:31.310Z,62.85
2017-06-24T12:41:31.336Z,63.14
2017-06-24T12:42:31.363Z,63.24
2017-06-24T12:44:31.422Z,63.24
2017-06-24T12:45:31.451Z,63.34
2017-06-24T12:46:31.477Z,64.5
2017-06-24T12:47:31.508Z,63.72
2017-06-24T12:48:31.537Z,62.95
2017-06-24T12:49:31.564Z,62.27
2017-06-24T12:50:31.591Z,63.14
2017-06-24T12:51:31.619Z,62.85
2017-06-24T12:52:31.649Z,61.24
2017-06-24T12:53:31.674Z,61.33
2017-06-24T12:54:31.702Z,61.62
2017-06-24T12:55:31.729Z,61.33
2017-06-24T12:57:31.789Z,61.98
2017-06-24T12:58:31.819Z,62.07
2017-06-24T12:59:31.843Z,61.79
2017-06-24T13:00:31.922Z,62.46
2017-06-24T13:01:31.900Z,62.46
2017-06-24T13:02:31.629Z,62.46
2017-06-24T13:03:46.576Z,63.24
2017-06-24T13:04:31.984Z,62.63
2017-06-24T13:05:32.021Z,63.21
2017-06-24T13:06:32.042Z,62.92
2017-06-24T13:07:32.071Z,63.01
2017-06-24T13:08:32.100Z,62.75
2017-06-24T13:09:32.127Z,61.98
2017-06-24T13:10:32.154Z,62.46
2017-06-24T13:11:32.185Z,62.37
2017-06-24T13:12:32.210Z,60.55
2017-06-24T13:13:32.239Z,61.91
2017-06-24T13:15:32.293Z,60.78
2017-06-24T13:16:32.325Z,60.49
2017-06-24T13:17:32.350Z,60.1
2017-06-24T13:18:32.380Z,60.49
2017-06-24T13:19:47.026Z,60.1
2017-06-24T13:20:32.441Z,60.17
2017-06-24T13:21:32.518Z,61.62
2017-06-24T13:22:32.491Z,60.27
2017-06-24T13:23:32.523Z,61.33
2017-06-24T13:24:32.553Z,60.58
2017-06-24T13:25:32.326Z,60.49
2017-06-24T13:26:32.305Z,61.07
2017-06-24T13:27:32.637Z,60.1
2017-06-24T13:28:32.668Z,60.2
2017-06-24T13:29:32.389Z,60.39
2017-06-24T13:30:32.720Z,59.61
2017-06-24T13:31:32.750Z,59.91
2017-06-24T13:32:32.474Z,59.81
2017-06-24T13:33:32.807Z,59.81
2017-06-24T13:34:32.840Z,58.97
2017-06-24T13:35:47.480Z,59.61
2017-06-24T13:36:32.944Z,59.71
2017-06-24T13:37:32.920Z,59.91